This is the latest recevied weather packets stored in our database for station/object AG1T-20. If no packets are shown the sender has not sent any weather packets the latest 10 day(s).
| Time | Temp. | Humidity | Pressure | Rain* | Wind** | Luminosity | Snow |
|---|---|---|---|---|---|---|---|
| 1787989804 | 18.33° C | 77% | 1020.1 hPa | 0 mm | - | 0 W/m² | - |
| 1787989204 | 17.78° C | 81% | 1020.1 hPa | 0 mm | - | 0 W/m² | - |
| 1787988604 | 17.78° C | 79% | 1020.1 hPa | 0 mm | - | 0 W/m² | - |
| 1787988004 | 18.89° C | 70% | 1020.1 hPa | 0 mm | - | 0 W/m² | - |
| 1787987404 | 18.33° C | 72% | 1020.1 hPa | 0 mm | - | 0 W/m² | - |
| 1787986804 | 17.78° C | 81% | 1020.1 hPa | 0 mm | - | 0 W/m² | - |
| 1787986205 | 17.78° C | 78% | 1022.1 hPa | 0 mm | - | 0 W/m² | - |
| 1787985604 | 17.78° C | 78% | 1022.1 hPa | 0.51 mm | - | 0 W/m² | - |
| 1787985005 | 17.22° C | 87% | 1022.1 hPa | 1.02 mm | - | 0 W/m² | - |
| 1787984404 | 17.22° C | 91% | 1022.1 hPa | 1.02 mm | - | 0 W/m² | - |
| 1787983804 | 17.22° C | 91% | 1022.1 hPa | 1.02 mm | - | 0 W/m² | - |
| 1787983205 | 17.22° C | 92% | 1022.1 hPa | 1.27 mm | - | 0 W/m² | - |
| 1787982604 | 16.67° C | 93% | 1021.2 hPa | 1.27 mm | - | 0 W/m² | - |
| 1787982004 | 16.67° C | 92% | 1021.2 hPa | 0.76 mm | - | 0 W/m² | - |
| 1787981404 | 17.22° C | 91% | 1021.2 hPa | 0.25 mm | - | 0 W/m² | - |
| 1787980804 | 17.78° C | 90% | 1021.2 hPa | 0.25 mm | - | 0 W/m² | - |
| 1787980204 | 17.78° C | 90% | 1021.2 hPa | 0.25 mm | - | 0 W/m² | - |
| 1787979604 | 17.22° C | 89% | 1021.2 hPa | 0 mm | - | 0 W/m² | - |
| 1787979004 | 17.78° C | 85% | 1021.1 hPa | 0 mm | - | 0 W/m² | - |
| 1787978404 | 18.33° C | 83% | 1021.1 hPa | 0 mm | - | 0 W/m² | - |
| 1787977804 | 18.89° C | 77% | 1021.1 hPa | 0 mm | - | 0 W/m² | - |
| 1787977204 | 18.89° C | 76% | 1021.1 hPa | 0 mm | - | 0 W/m² | - |
| 1787976604 | 18.89° C | 75% | 1021.1 hPa | 0 mm | - | 0 W/m² | - |
| 1787976004 | 18.89° C | 77% | 1021.1 hPa | 0 mm | - | 0 W/m² | - |
| 1787975404 | 18.89° C | 76% | 1020.8 hPa | 0 mm | - | 0 W/m² | - |
* Rain latest hour (hover to see other rain measurements)
** Current wind speed in m/s (hover to see current wind gust speed)